sensor_id;sensor_type;location;lat;lon;timestamp;P1;durP1;ratioP1;P2;durP2;ratioP2
67500;SDS011;54349;52.528;19.760;2022-10-13T00:01:19;14.80;;;9.40;;
67500;SDS011;54349;52.528;19.760;2022-10-13T00:03:49;13.30;;;8.30;;
67500;SDS011;54349;52.528;19.760;2022-10-13T00:06:23;14.00;;;9.10;;
67500;SDS011;54349;52.528;19.760;2022-10-13T00:08:53;12.80;;;8.40;;
67500;SDS011;54349;52.528;19.760;2022-10-13T00:11:24;13.00;;;9.00;;
67500;SDS011;54349;52.528;19.760;2022-10-13T00:13:59;14.90;;;8.60;;
67500;SDS011;54349;52.528;19.760;2022-10-13T00:16:30;13.50;;;8.90;;
67500;SDS011;54349;52.528;19.760;2022-10-13T00:18:59;14.30;;;8.90;;
67500;SDS011;54349;52.528;19.760;2022-10-13T00:21:28;12.80;;;8.60;;
67500;SDS011;54349;52.528;19.760;2022-10-13T00:23:56;14.10;;;9.10;;
67500;SDS011;54349;52.528;19.760;2022-10-13T00:26:25;13.80;;;8.60;;
67500;SDS011;54349;52.528;19.760;2022-10-13T00:28:54;13.30;;;8.80;;
67500;SDS011;54349;52.528;19.760;2022-10-13T00:31:25;12.60;;;8.60;;
67500;SDS011;54349;52.528;19.760;2022-10-13T00:33:57;12.20;;;8.30;;
67500;SDS011;54349;52.528;19.760;2022-10-13T00:36:27;14.60;;;8.80;;
67500;SDS011;54349;52.528;19.760;2022-10-13T00:38:57;12.80;;;8.50;;
67500;SDS011;54349;52.528;19.760;2022-10-13T00:41:25;12.60;;;8.40;;
67500;SDS011;54349;52.528;19.760;2022-10-13T00:43:58;14.20;;;8.50;;
67500;SDS011;54349;52.528;19.760;2022-10-13T00:46:31;13.70;;;8.40;;
67500;SDS011;54349;52.528;19.760;2022-10-13T00:49:20;12.90;;;8.30;;
67500;SDS011;54349;52.528;19.760;2022-10-13T00:51:49;12.80;;;8.10;;
67500;SDS011;54349;52.528;19.760;2022-10-13T00:54:23;14.20;;;8.70;;
67500;SDS011;54349;52.528;19.760;2022-10-13T00:56:52;14.30;;;8.30;;
67500;SDS011;54349;52.528;19.760;2022-10-13T00:59:26;12.70;;;8.30;;
67500;SDS011;54349;52.528;19.760;2022-10-13T01:04:31;14.50;;;8.20;;
67500;SDS011;54349;52.528;19.760;2022-10-13T01:07:02;14.20;;;8.40;;
67500;SDS011;54349;52.528;19.760;2022-10-13T01:09:32;13.30;;;7.90;;
67500;SDS011;54349;52.528;19.760;2022-10-13T01:27:02;13.70;;;8.10;;
67500;SDS011;54349;52.528;19.760;2022-10-13T01:44:14;14.50;;;8.50;;
67500;SDS011;54349;52.528;19.760;2022-10-13T01:46:56;13.70;;;8.30;;
67500;SDS011;54349;52.528;19.760;2022-10-13T01:49:30;12.40;;;8.10;;
67500;SDS011;54349;52.528;19.760;2022-10-13T01:52:05;13.40;;;7.90;;
67500;SDS011;54349;52.528;19.760;2022-10-13T01:54:35;12.30;;;8.30;;
67500;SDS011;54349;52.528;19.760;2022-10-13T01:57:03;11.20;;;7.30;;
67500;SDS011;54349;52.528;19.760;2022-10-13T01:59:32;13.90;;;8.20;;
67500;SDS011;54349;52.528;19.760;2022-10-13T02:02:20;11.60;;;7.30;;
67500;SDS011;54349;52.528;19.760;2022-10-13T02:07:52;13.40;;;8.00;;
67500;SDS011;54349;52.528;19.760;2022-10-13T02:13:12;12.80;;;8.00;;
67500;SDS011;54349;52.528;19.760;2022-10-13T02:15:48;10.80;;;7.60;;
67500;SDS011;54349;52.528;19.760;2022-10-13T02:18:25;11.80;;;7.50;;
67500;SDS011;54349;52.528;19.760;2022-10-13T02:21:00;12.90;;;8.20;;
67500;SDS011;54349;52.528;19.760;2022-10-13T02:23:30;12.80;;;8.20;;
67500;SDS011;54349;52.528;19.760;2022-10-13T02:25:59;13.30;;;8.20;;
67500;SDS011;54349;52.528;19.760;2022-10-13T02:28:27;14.60;;;7.70;;
67500;SDS011;54349;52.528;19.760;2022-10-13T02:30:56;12.80;;;8.00;;
67500;SDS011;54349;52.528;19.760;2022-10-13T02:33:24;13.50;;;7.70;;
67500;SDS011;54349;52.528;19.760;2022-10-13T02:35:52;11.30;;;7.40;;
67500;SDS011;54349;52.528;19.760;2022-10-13T02:38:21;12.50;;;7.70;;
67500;SDS011;54349;52.528;19.760;2022-10-13T02:40:49;13.50;;;8.40;;
67500;SDS011;54349;52.528;19.760;2022-10-13T02:43:17;12.60;;;7.90;;
67500;SDS011;54349;52.528;19.760;2022-10-13T02:45:45;11.60;;;7.70;;
67500;SDS011;54349;52.528;19.760;2022-10-13T02:48:13;12.30;;;7.40;;
67500;SDS011;54349;52.528;19.760;2022-10-13T02:50:41;13.40;;;7.70;;
67500;SDS011;54349;52.528;19.760;2022-10-13T02:53:09;13.90;;;8.00;;
67500;SDS011;54349;52.528;19.760;2022-10-13T02:55:37;12.20;;;7.80;;
67500;SDS011;54349;52.528;19.760;2022-10-13T02:58:05;13.60;;;8.20;;
67500;SDS011;54349;52.528;19.760;2022-10-13T03:00:33;12.20;;;7.70;;
67500;SDS011;54349;52.528;19.760;2022-10-13T03:03:01;13.50;;;8.00;;
67500;SDS011;54349;52.528;19.760;2022-10-13T03:05:30;14.50;;;8.20;;
67500;SDS011;54349;52.528;19.760;2022-10-13T03:07:58;13.20;;;8.20;;
67500;SDS011;54349;52.528;19.760;2022-10-13T03:10:26;14.50;;;7.60;;
67500;SDS011;54349;52.528;19.760;2022-10-13T03:12:54;13.10;;;8.40;;
67500;SDS011;54349;52.528;19.760;2022-10-13T03:15:23;13.00;;;7.80;;
67500;SDS011;54349;52.528;19.760;2022-10-13T03:17:54;12.60;;;7.70;;
67500;SDS011;54349;52.528;19.760;2022-10-13T03:20:22;13.70;;;8.10;;
67500;SDS011;54349;52.528;19.760;2022-10-13T03:22:50;12.40;;;7.90;;
67500;SDS011;54349;52.528;19.760;2022-10-13T03:25:17;9.40;;;6.10;;
67500;SDS011;54349;52.528;19.760;2022-10-13T03:27:45;13.00;;;7.80;;
67500;SDS011;54349;52.528;19.760;2022-10-13T03:30:14;13.30;;;7.80;;
67500;SDS011;54349;52.528;19.760;2022-10-13T03:32:42;14.10;;;7.80;;
67500;SDS011;54349;52.528;19.760;2022-10-13T03:35:10;12.60;;;7.50;;
67500;SDS011;54349;52.528;19.760;2022-10-13T03:37:38;13.50;;;8.00;;
67500;SDS011;54349;52.528;19.760;2022-10-13T03:40:07;12.90;;;7.70;;
67500;SDS011;54349;52.528;19.760;2022-10-13T03:42:37;14.20;;;7.90;;
67500;SDS011;54349;52.528;19.760;2022-10-13T03:45:06;13.30;;;8.10;;
67500;SDS011;54349;52.528;19.760;2022-10-13T03:47:37;13.30;;;8.10;;
67500;SDS011;54349;52.528;19.760;2022-10-13T03:50:06;11.60;;;7.60;;
67500;SDS011;54349;52.528;19.760;2022-10-13T03:52:34;11.30;;;7.50;;
67500;SDS011;54349;52.528;19.760;2022-10-13T03:55:03;11.40;;;7.40;;
67500;SDS011;54349;52.528;19.760;2022-10-13T03:57:32;12.50;;;7.30;;
67500;SDS011;54349;52.528;19.760;2022-10-13T04:00:00;12.10;;;7.60;;
67500;SDS011;54349;52.528;19.760;2022-10-13T04:02:39;11.40;;;7.00;;
67500;SDS011;54349;52.528;19.760;2022-10-13T04:05:07;11.00;;;7.10;;
67500;SDS011;54349;52.528;19.760;2022-10-13T04:07:35;13.80;;;7.90;;
67500;SDS011;54349;52.528;19.760;2022-10-13T04:10:08;11.50;;;7.30;;
67500;SDS011;54349;52.528;19.760;2022-10-13T04:12:38;12.10;;;7.90;;
67500;SDS011;54349;52.528;19.760;2022-10-13T04:15:07;11.70;;;7.40;;
67500;SDS011;54349;52.528;19.760;2022-10-13T04:17:35;11.20;;;7.00;;
67500;SDS011;54349;52.528;19.760;2022-10-13T04:20:04;11.10;;;7.40;;
67500;SDS011;54349;52.528;19.760;2022-10-13T04:22:33;11.90;;;7.30;;
67500;SDS011;54349;52.528;19.760;2022-10-13T04:25:01;12.20;;;7.20;;
67500;SDS011;54349;52.528;19.760;2022-10-13T04:27:29;13.60;;;7.90;;
67500;SDS011;54349;52.528;19.760;2022-10-13T04:29:59;14.10;;;7.90;;
67500;SDS011;54349;52.528;19.760;2022-10-13T04:32:27;11.60;;;7.30;;
67500;SDS011;54349;52.528;19.760;2022-10-13T04:34:55;11.50;;;7.50;;
67500;SDS011;54349;52.528;19.760;2022-10-13T04:37:23;10.20;;;7.20;;
67500;SDS011;54349;52.528;19.760;2022-10-13T04:39:52;11.80;;;7.30;;
67500;SDS011;54349;52.528;19.760;2022-10-13T04:42:20;12.80;;;7.10;;
67500;SDS011;54349;52.528;19.760;2022-10-13T04:44:48;10.80;;;7.10;;
67500;SDS011;54349;52.528;19.760;2022-10-13T04:47:17;13.50;;;7.60;;
67500;SDS011;54349;52.528;19.760;2022-10-13T04:49:45;12.90;;;7.50;;
67500;SDS011;54349;52.528;19.760;2022-10-13T04:52:13;12.10;;;7.70;;
67500;SDS011;54349;52.528;19.760;2022-10-13T04:54:42;12.00;;;7.10;;
67500;SDS011;54349;52.528;19.760;2022-10-13T04:57:10;12.80;;;7.70;;
67500;SDS011;54349;52.528;19.760;2022-10-13T04:59:38;15.20;;;7.60;;
67500;SDS011;54349;52.528;19.760;2022-10-13T05:02:06;16.00;;;8.70;;
67500;SDS011;54349;52.528;19.760;2022-10-13T05:04:36;15.80;;;8.60;;
67500;SDS011;54349;52.528;19.760;2022-10-13T05:07:03;17.40;;;8.30;;
67500;SDS011;54349;52.528;19.760;2022-10-13T05:09:45;17.80;;;9.60;;
67500;SDS011;54349;52.528;19.760;2022-10-13T05:12:14;20.70;;;9.60;;
67500;SDS011;54349;52.528;19.760;2022-10-13T05:14:42;22.10;;;10.40;;
67500;SDS011;54349;52.528;19.760;2022-10-13T05:17:10;23.00;;;10.00;;
67500;SDS011;54349;52.528;19.760;2022-10-13T05:19:38;25.40;;;10.70;;
67500;SDS011;54349;52.528;19.760;2022-10-13T05:22:06;22.50;;;10.90;;
67500;SDS011;54349;52.528;19.760;2022-10-13T05:24:34;27.00;;;12.10;;
67500;SDS011;54349;52.528;19.760;2022-10-13T05:27:08;25.20;;;11.40;;
67500;SDS011;54349;52.528;19.760;2022-10-13T05:29:39;27.10;;;12.10;;
67500;SDS011;54349;52.528;19.760;2022-10-13T05:32:07;25.40;;;12.10;;
67500;SDS011;54349;52.528;19.760;2022-10-13T05:34:35;30.00;;;12.80;;
67500;SDS011;54349;52.528;19.760;2022-10-13T05:37:03;29.50;;;12.30;;
67500;SDS011;54349;52.528;19.760;2022-10-13T05:39:33;28.10;;;12.90;;
67500;SDS011;54349;52.528;19.760;2022-10-13T05:42:00;27.90;;;12.20;;
67500;SDS011;54349;52.528;19.760;2022-10-13T05:44:28;30.90;;;13.00;;
67500;SDS011;54349;52.528;19.760;2022-10-13T05:46:57;29.80;;;12.60;;
67500;SDS011;54349;52.528;19.760;2022-10-13T05:49:28;24.10;;;12.20;;
67500;SDS011;54349;52.528;19.760;2022-10-13T05:52:00;27.50;;;12.70;;
67500;SDS011;54349;52.528;19.760;2022-10-13T05:54:40;31.60;;;13.60;;
67500;SDS011;54349;52.528;19.760;2022-10-13T05:57:25;32.00;;;14.00;;
67500;SDS011;54349;52.528;19.760;2022-10-13T06:00:08;28.50;;;13.10;;
67500;SDS011;54349;52.528;19.760;2022-10-13T06:05:27;30.20;;;13.00;;
67500;SDS011;54349;52.528;19.760;2022-10-13T06:07:55;26.60;;;13.30;;
67500;SDS011;54349;52.528;19.760;2022-10-13T06:10:25;29.20;;;13.30;;
67500;SDS011;54349;52.528;19.760;2022-10-13T06:12:53;33.30;;;13.80;;
67500;SDS011;54349;52.528;19.760;2022-10-13T06:15:21;31.70;;;13.60;;
67500;SDS011;54349;52.528;19.760;2022-10-13T06:20:24;33.50;;;14.00;;
67500;SDS011;54349;52.528;19.760;2022-10-13T06:22:54;30.60;;;13.90;;
67500;SDS011;54349;52.528;19.760;2022-10-13T06:25:23;30.30;;;13.60;;
67500;SDS011;54349;52.528;19.760;2022-10-13T06:27:51;28.30;;;13.90;;
67500;SDS011;54349;52.528;19.760;2022-10-13T06:30:19;30.30;;;13.60;;
67500;SDS011;54349;52.528;19.760;2022-10-13T06:32:47;31.40;;;13.40;;
67500;SDS011;54349;52.528;19.760;2022-10-13T06:35:15;32.00;;;14.10;;
67500;SDS011;54349;52.528;19.760;2022-10-13T06:37:43;33.20;;;13.60;;
67500;SDS011;54349;52.528;19.760;2022-10-13T06:40:13;27.40;;;13.60;;
67500;SDS011;54349;52.528;19.760;2022-10-13T06:42:48;29.10;;;13.80;;
67500;SDS011;54349;52.528;19.760;2022-10-13T06:45:16;26.50;;;13.30;;
67500;SDS011;54349;52.528;19.760;2022-10-13T06:47:46;27.90;;;13.60;;
67500;SDS011;54349;52.528;19.760;2022-10-13T06:50:15;27.50;;;13.10;;
67500;SDS011;54349;52.528;19.760;2022-10-13T06:52:42;32.30;;;14.20;;
67500;SDS011;54349;52.528;19.760;2022-10-13T06:55:11;24.90;;;13.30;;
67500;SDS011;54349;52.528;19.760;2022-10-13T06:57:39;27.90;;;12.50;;
67500;SDS011;54349;52.528;19.760;2022-10-13T07:00:08;25.70;;;12.10;;
67500;SDS011;54349;52.528;19.760;2022-10-13T07:02:37;24.50;;;12.40;;
67500;SDS011;54349;52.528;19.760;2022-10-13T07:05:05;21.50;;;11.50;;
67500;SDS011;54349;52.528;19.760;2022-10-13T07:07:33;25.50;;;12.00;;
67500;SDS011;54349;52.528;19.760;2022-10-13T07:10:01;20.20;;;10.60;;
67500;SDS011;54349;52.528;19.760;2022-10-13T07:12:30;21.00;;;11.10;;
67500;SDS011;54349;52.528;19.760;2022-10-13T07:14:58;22.80;;;10.60;;
67500;SDS011;54349;52.528;19.760;2022-10-13T07:17:26;23.60;;;11.10;;
67500;SDS011;54349;52.528;19.760;2022-10-13T07:19:54;20.80;;;10.60;;
67500;SDS011;54349;52.528;19.760;2022-10-13T07:22:25;19.20;;;10.60;;
67500;SDS011;54349;52.528;19.760;2022-10-13T07:24:53;17.90;;;9.90;;
67500;SDS011;54349;52.528;19.760;2022-10-13T07:27:22;18.80;;;9.60;;
67500;SDS011;54349;52.528;19.760;2022-10-13T07:29:50;20.20;;;10.10;;
67500;SDS011;54349;52.528;19.760;2022-10-13T07:32:18;17.70;;;9.30;;
67500;SDS011;54349;52.528;19.760;2022-10-13T07:34:46;18.00;;;9.80;;
67500;SDS011;54349;52.528;19.760;2022-10-13T07:37:15;20.00;;;9.10;;
67500;SDS011;54349;52.528;19.760;2022-10-13T07:39:43;17.40;;;9.40;;
67500;SDS011;54349;52.528;19.760;2022-10-13T07:42:11;16.30;;;9.00;;
67500;SDS011;54349;52.528;19.760;2022-10-13T07:44:39;15.80;;;8.80;;
67500;SDS011;54349;52.528;19.760;2022-10-13T07:47:07;15.70;;;8.50;;
67500;SDS011;54349;52.528;19.760;2022-10-13T07:49:35;15.50;;;8.40;;
67500;SDS011;54349;52.528;19.760;2022-10-13T07:52:03;14.50;;;8.40;;
67500;SDS011;54349;52.528;19.760;2022-10-13T07:54:31;14.30;;;8.40;;
67500;SDS011;54349;52.528;19.760;2022-10-13T07:56:59;14.90;;;8.00;;
67500;SDS011;54349;52.528;19.760;2022-10-13T07:59:27;16.80;;;8.10;;
67500;SDS011;54349;52.528;19.760;2022-10-13T08:01:56;13.50;;;7.60;;
67500;SDS011;54349;52.528;19.760;2022-10-13T08:04:24;13.80;;;7.90;;
67500;SDS011;54349;52.528;19.760;2022-10-13T08:06:52;14.90;;;8.10;;
67500;SDS011;54349;52.528;19.760;2022-10-13T08:09:20;18.40;;;8.40;;
67500;SDS011;54349;52.528;19.760;2022-10-13T08:11:48;14.60;;;8.00;;
67500;SDS011;54349;52.528;19.760;2022-10-13T08:14:17;12.50;;;7.10;;
67500;SDS011;54349;52.528;19.760;2022-10-13T08:16:47;14.50;;;8.00;;
67500;SDS011;54349;52.528;19.760;2022-10-13T08:19:20;12.70;;;7.80;;
67500;SDS011;54349;52.528;19.760;2022-10-13T08:21:48;14.30;;;7.50;;
67500;SDS011;54349;52.528;19.760;2022-10-13T08:24:26;13.60;;;7.90;;
67500;SDS011;54349;52.528;19.760;2022-10-13T08:26:54;13.30;;;7.30;;
67500;SDS011;54349;52.528;19.760;2022-10-13T08:29:23;16.40;;;8.10;;
67500;SDS011;54349;52.528;19.760;2022-10-13T08:31:52;13.30;;;7.50;;
67500;SDS011;54349;52.528;19.760;2022-10-13T08:34:22;12.50;;;7.30;;
67500;SDS011;54349;52.528;19.760;2022-10-13T08:36:52;13.80;;;7.40;;
67500;SDS011;54349;52.528;19.760;2022-10-13T08:39:23;12.20;;;6.80;;
67500;SDS011;54349;52.528;19.760;2022-10-13T08:41:53;11.70;;;6.90;;
67500;SDS011;54349;52.528;19.760;2022-10-13T08:44:37;12.40;;;7.10;;
67500;SDS011;54349;52.528;19.760;2022-10-13T08:50:15;11.40;;;6.50;;
67500;SDS011;54349;52.528;19.760;2022-10-13T08:55:46;11.30;;;6.70;;
67500;SDS011;54349;52.528;19.760;2022-10-13T08:58:27;10.70;;;6.30;;
67500;SDS011;54349;52.528;19.760;2022-10-13T09:09:09;11.60;;;6.80;;
67500;SDS011;54349;52.528;19.760;2022-10-13T09:11:41;11.10;;;6.40;;
67500;SDS011;54349;52.528;19.760;2022-10-13T09:14:21;11.00;;;6.10;;
67500;SDS011;54349;52.528;19.760;2022-10-13T09:16:56;10.30;;;6.20;;
67500;SDS011;54349;52.528;19.760;2022-10-13T09:22:35;10.40;;;6.10;;
67500;SDS011;54349;52.528;19.760;2022-10-13T09:27:59;10.70;;;6.20;;
67500;SDS011;54349;52.528;19.760;2022-10-13T09:30:36;10.70;;;6.40;;
67500;SDS011;54349;52.528;19.760;2022-10-13T09:35:40;10.70;;;6.30;;
67500;SDS011;54349;52.528;19.760;2022-10-13T09:38:22;10.10;;;6.20;;
67500;SDS011;54349;52.528;19.760;2022-10-13T09:46:24;10.50;;;6.20;;
67500;SDS011;54349;52.528;19.760;2022-10-13T09:48:56;10.00;;;5.60;;
67500;SDS011;54349;52.528;19.760;2022-10-13T09:51:39;11.20;;;6.10;;
67500;SDS011;54349;52.528;19.760;2022-10-13T09:54:43;10.80;;;6.10;;
67500;SDS011;54349;52.528;19.760;2022-10-13T09:57:40;11.70;;;5.90;;
67500;SDS011;54349;52.528;19.760;2022-10-13T10:00:26;10.20;;;5.90;;
67500;SDS011;54349;52.528;19.760;2022-10-13T10:03:15;8.50;;;5.30;;
67500;SDS011;54349;52.528;19.760;2022-10-13T10:05:53;10.00;;;5.70;;
67500;SDS011;54349;52.528;19.760;2022-10-13T10:11:49;12.90;;;7.30;;
67500;SDS011;54349;52.528;19.760;2022-10-13T10:14:35;16.90;;;8.70;;
67500;SDS011;54349;52.528;19.760;2022-10-13T10:20:00;14.00;;;7.90;;
67500;SDS011;54349;52.528;19.760;2022-10-13T10:25:44;14.10;;;7.70;;
67500;SDS011;54349;52.528;19.760;2022-10-13T10:28:42;16.40;;;8.70;;
67500;SDS011;54349;52.528;19.760;2022-10-13T10:42:58;13.50;;;7.40;;
67500;SDS011;54349;52.528;19.760;2022-10-13T10:45:38;13.30;;;7.80;;
67500;SDS011;54349;52.528;19.760;2022-10-13T10:48:30;15.40;;;8.00;;
67500;SDS011;54349;52.528;19.760;2022-10-13T10:51:05;13.90;;;7.30;;
67500;SDS011;54349;52.528;19.760;2022-10-13T11:05:06;12.90;;;7.70;;
67500;SDS011;54349;52.528;19.760;2022-10-13T11:17:56;13.30;;;7.00;;
67500;SDS011;54349;52.528;19.760;2022-10-13T11:25:45;11.20;;;7.10;;
67500;SDS011;54349;52.528;19.760;2022-10-13T11:31:22;12.20;;;7.20;;
67500;SDS011;54349;52.528;19.760;2022-10-13T11:34:00;11.70;;;6.70;;
67500;SDS011;54349;52.528;19.760;2022-10-13T11:36:52;11.30;;;6.80;;
67500;SDS011;54349;52.528;19.760;2022-10-13T11:42:14;11.20;;;6.90;;
67500;SDS011;54349;52.528;19.760;2022-10-13T11:45:09;12.70;;;6.70;;
67500;SDS011;54349;52.528;19.760;2022-10-13T11:52:10;11.80;;;6.50;;
67500;SDS011;54349;52.528;19.760;2022-10-13T11:54:54;10.10;;;6.10;;
67500;SDS011;54349;52.528;19.760;2022-10-13T11:57:42;12.30;;;7.00;;
67500;SDS011;54349;52.528;19.760;2022-10-13T12:00:16;9.70;;;5.90;;
67500;SDS011;54349;52.528;19.760;2022-10-13T12:02:49;10.10;;;6.30;;
67500;SDS011;54349;52.528;19.760;2022-10-13T12:05:26;12.20;;;6.70;;
67500;SDS011;54349;52.528;19.760;2022-10-13T12:07:59;10.90;;;6.30;;
67500;SDS011;54349;52.528;19.760;2022-10-13T12:10:35;11.60;;;7.00;;
67500;SDS011;54349;52.528;19.760;2022-10-13T12:13:05;10.30;;;5.90;;
67500;SDS011;54349;52.528;19.760;2022-10-13T12:15:42;10.80;;;6.80;;
67500;SDS011;54349;52.528;19.760;2022-10-13T12:18:23;10.20;;;6.40;;
67500;SDS011;54349;52.528;19.760;2022-10-13T12:21:12;11.50;;;6.70;;
67500;SDS011;54349;52.528;19.760;2022-10-13T12:23:43;10.00;;;6.00;;
67500;SDS011;54349;52.528;19.760;2022-10-13T12:26:22;13.50;;;6.40;;
67500;SDS011;54349;52.528;19.760;2022-10-13T12:28:53;10.20;;;6.20;;
67500;SDS011;54349;52.528;19.760;2022-10-13T12:31:37;8.90;;;5.60;;
67500;SDS011;54349;52.528;19.760;2022-10-13T12:34:28;12.20;;;6.20;;
67500;SDS011;54349;52.528;19.760;2022-10-13T12:37:05;9.20;;;6.00;;
67500;SDS011;54349;52.528;19.760;2022-10-13T12:39:41;9.70;;;5.60;;
67500;SDS011;54349;52.528;19.760;2022-10-13T12:42:12;10.70;;;6.20;;
67500;SDS011;54349;52.528;19.760;2022-10-13T12:44:41;9.80;;;6.10;;
67500;SDS011;54349;52.528;19.760;2022-10-13T12:48:03;9.50;;;5.40;;
67500;SDS011;54349;52.528;19.760;2022-10-13T12:53:17;10.80;;;5.80;;
67500;SDS011;54349;52.528;19.760;2022-10-13T12:55:54;8.60;;;5.40;;
67500;SDS011;54349;52.528;19.760;2022-10-13T12:58:28;10.50;;;5.50;;
67500;SDS011;54349;52.528;19.760;2022-10-13T13:03:42;9.40;;;5.20;;
67500;SDS011;54349;52.528;19.760;2022-10-13T13:08:42;9.20;;;5.60;;
67500;SDS011;54349;52.528;19.760;2022-10-13T13:11:22;10.70;;;5.00;;
67500;SDS011;54349;52.528;19.760;2022-10-13T13:14:33;8.80;;;5.20;;
67500;SDS011;54349;52.528;19.760;2022-10-13T13:19:59;9.20;;;5.10;;
67500;SDS011;54349;52.528;19.760;2022-10-13T13:22:27;9.00;;;5.20;;
67500;SDS011;54349;52.528;19.760;2022-10-13T13:24:55;8.20;;;5.40;;
67500;SDS011;54349;52.528;19.760;2022-10-13T13:27:27;8.20;;;5.10;;
67500;SDS011;54349;52.528;19.760;2022-10-13T13:30:03;8.00;;;5.00;;
67500;SDS011;54349;52.528;19.760;2022-10-13T13:32:36;7.30;;;4.70;;
67500;SDS011;54349;52.528;19.760;2022-10-13T13:35:05;8.40;;;4.90;;
67500;SDS011;54349;52.528;19.760;2022-10-13T13:37:52;7.90;;;4.80;;
67500;SDS011;54349;52.528;19.760;2022-10-13T13:40:22;7.90;;;4.70;;
67500;SDS011;54349;52.528;19.760;2022-10-13T13:42:53;8.90;;;5.30;;
67500;SDS011;54349;52.528;19.760;2022-10-13T13:45:24;8.80;;;4.90;;
67500;SDS011;54349;52.528;19.760;2022-10-13T13:47:53;8.60;;;5.10;;
67500;SDS011;54349;52.528;19.760;2022-10-13T13:50:32;7.90;;;4.90;;
67500;SDS011;54349;52.528;19.760;2022-10-13T13:53:03;8.30;;;4.70;;
67500;SDS011;54349;52.528;19.760;2022-10-13T13:55:33;8.60;;;4.90;;
67500;SDS011;54349;52.528;19.760;2022-10-13T13:58:02;10.50;;;5.10;;
67500;SDS011;54349;52.528;19.760;2022-10-13T14:00:30;8.70;;;5.00;;
67500;SDS011;54349;52.528;19.760;2022-10-13T14:02:58;8.50;;;5.00;;
67500;SDS011;54349;52.528;19.760;2022-10-13T14:05:27;8.30;;;4.80;;
67500;SDS011;54349;52.528;19.760;2022-10-13T14:07:55;8.60;;;5.00;;
67500;SDS011;54349;52.528;19.760;2022-10-13T14:10:25;7.40;;;4.80;;
67500;SDS011;54349;52.528;19.760;2022-10-13T14:12:54;9.70;;;4.70;;
67500;SDS011;54349;52.528;19.760;2022-10-13T14:15:22;8.50;;;4.90;;
67500;SDS011;54349;52.528;19.760;2022-10-13T14:17:56;8.30;;;4.70;;
67500;SDS011;54349;52.528;19.760;2022-10-13T14:20:24;8.20;;;4.50;;
67500;SDS011;54349;52.528;19.760;2022-10-13T14:22:52;8.00;;;4.40;;
67500;SDS011;54349;52.528;19.760;2022-10-13T14:25:20;7.80;;;4.90;;
67500;SDS011;54349;52.528;19.760;2022-10-13T14:27:49;8.30;;;4.80;;
67500;SDS011;54349;52.528;19.760;2022-10-13T14:30:18;7.40;;;4.50;;
67500;SDS011;54349;52.528;19.760;2022-10-13T14:32:46;7.60;;;4.40;;
67500;SDS011;54349;52.528;19.760;2022-10-13T14:35:14;9.50;;;4.90;;
67500;SDS011;54349;52.528;19.760;2022-10-13T14:37:42;7.80;;;4.50;;
67500;SDS011;54349;52.528;19.760;2022-10-13T14:40:10;6.90;;;4.30;;
67500;SDS011;54349;52.528;19.760;2022-10-13T14:42:38;7.90;;;4.60;;
67500;SDS011;54349;52.528;19.760;2022-10-13T14:45:13;7.90;;;4.40;;
67500;SDS011;54349;52.528;19.760;2022-10-13T14:47:42;8.30;;;4.60;;
67500;SDS011;54349;52.528;19.760;2022-10-13T14:50:10;8.20;;;4.40;;
67500;SDS011;54349;52.528;19.760;2022-10-13T14:52:38;6.60;;;4.20;;
67500;SDS011;54349;52.528;19.760;2022-10-13T14:55:07;7.30;;;4.30;;
67500;SDS011;54349;52.528;19.760;2022-10-13T14:57:36;7.50;;;4.30;;
67500;SDS011;54349;52.528;19.760;2022-10-13T15:00:04;7.00;;;4.30;;
67500;SDS011;54349;52.528;19.760;2022-10-13T15:02:33;6.90;;;3.90;;
67500;SDS011;54349;52.528;19.760;2022-10-13T15:05:01;7.50;;;4.30;;
67500;SDS011;54349;52.528;19.760;2022-10-13T15:07:47;7.10;;;3.90;;
67500;SDS011;54349;52.528;19.760;2022-10-13T15:10:15;6.60;;;3.80;;
67500;SDS011;54349;52.528;19.760;2022-10-13T15:12:43;8.00;;;4.30;;
67500;SDS011;54349;52.528;19.760;2022-10-13T15:15:11;7.80;;;4.40;;
67500;SDS011;54349;52.528;19.760;2022-10-13T15:17:39;8.60;;;4.40;;
67500;SDS011;54349;52.528;19.760;2022-10-13T15:20:08;7.60;;;4.50;;
67500;SDS011;54349;52.528;19.760;2022-10-13T15:22:37;6.90;;;4.20;;
67500;SDS011;54349;52.528;19.760;2022-10-13T15:25:08;7.20;;;4.20;;
67500;SDS011;54349;52.528;19.760;2022-10-13T15:27:38;6.80;;;4.00;;
67500;SDS011;54349;52.528;19.760;2022-10-13T15:30:09;6.60;;;3.90;;
67500;SDS011;54349;52.528;19.760;2022-10-13T15:32:37;6.80;;;4.30;;
67500;SDS011;54349;52.528;19.760;2022-10-13T15:35:06;6.80;;;4.00;;
67500;SDS011;54349;52.528;19.760;2022-10-13T15:37:35;7.70;;;4.10;;
67500;SDS011;54349;52.528;19.760;2022-10-13T15:40:06;7.40;;;4.50;;
67500;SDS011;54349;52.528;19.760;2022-10-13T15:42:34;8.60;;;4.70;;
67500;SDS011;54349;52.528;19.760;2022-10-13T15:45:03;8.40;;;4.60;;
67500;SDS011;54349;52.528;19.760;2022-10-13T15:47:37;7.80;;;4.20;;
67500;SDS011;54349;52.528;19.760;2022-10-13T15:50:06;7.60;;;4.40;;
67500;SDS011;54349;52.528;19.760;2022-10-13T15:52:39;6.70;;;4.00;;
67500;SDS011;54349;52.528;19.760;2022-10-13T15:55:09;7.50;;;4.30;;
67500;SDS011;54349;52.528;19.760;2022-10-13T15:57:39;7.50;;;4.20;;
67500;SDS011;54349;52.528;19.760;2022-10-13T16:00:09;7.30;;;4.50;;
67500;SDS011;54349;52.528;19.760;2022-10-13T16:02:42;7.50;;;4.40;;
67500;SDS011;54349;52.528;19.760;2022-10-13T16:05:11;7.40;;;4.20;;
67500;SDS011;54349;52.528;19.760;2022-10-13T16:07:40;7.80;;;4.10;;
67500;SDS011;54349;52.528;19.760;2022-10-13T16:10:10;6.70;;;4.30;;
67500;SDS011;54349;52.528;19.760;2022-10-13T16:12:39;7.60;;;4.20;;
67500;SDS011;54349;52.528;19.760;2022-10-13T16:15:16;7.80;;;4.30;;
67500;SDS011;54349;52.528;19.760;2022-10-13T16:17:45;7.80;;;4.10;;
67500;SDS011;54349;52.528;19.760;2022-10-13T16:20:13;8.10;;;4.30;;
67500;SDS011;54349;52.528;19.760;2022-10-13T16:22:41;7.80;;;4.40;;
67500;SDS011;54349;52.528;19.760;2022-10-13T16:25:10;7.80;;;4.20;;
67500;SDS011;54349;52.528;19.760;2022-10-13T16:27:38;7.90;;;4.20;;
67500;SDS011;54349;52.528;19.760;2022-10-13T16:30:11;7.90;;;4.00;;
67500;SDS011;54349;52.528;19.760;2022-10-13T16:32:40;7.80;;;4.30;;
67500;SDS011;54349;52.528;19.760;2022-10-13T16:35:08;7.60;;;3.90;;
67500;SDS011;54349;52.528;19.760;2022-10-13T16:37:36;7.40;;;4.00;;
67500;SDS011;54349;52.528;19.760;2022-10-13T16:40:05;7.60;;;4.40;;
67500;SDS011;54349;52.528;19.760;2022-10-13T16:42:34;7.20;;;4.00;;
67500;SDS011;54349;52.528;19.760;2022-10-13T16:45:03;7.70;;;4.50;;
67500;SDS011;54349;52.528;19.760;2022-10-13T16:47:32;6.80;;;3.80;;
67500;SDS011;54349;52.528;19.760;2022-10-13T16:50:00;7.80;;;4.40;;
67500;SDS011;54349;52.528;19.760;2022-10-13T16:52:33;8.50;;;4.20;;
67500;SDS011;54349;52.528;19.760;2022-10-13T16:55:05;7.40;;;4.00;;
67500;SDS011;54349;52.528;19.760;2022-10-13T16:57:34;6.10;;;3.80;;
67500;SDS011;54349;52.528;19.760;2022-10-13T17:00:03;7.50;;;4.10;;
67500;SDS011;54349;52.528;19.760;2022-10-13T17:02:33;6.60;;;4.00;;
67500;SDS011;54349;52.528;19.760;2022-10-13T17:05:02;7.70;;;4.60;;
67500;SDS011;54349;52.528;19.760;2022-10-13T17:07:30;7.90;;;4.30;;
67500;SDS011;54349;52.528;19.760;2022-10-13T17:09:58;7.80;;;4.00;;